Time;durP1;ratioP1;P1;durP2;ratioP2;P2;SDS_P1;SDS_P2;PMS_P1;PMS_P2;Temp;Humidity;BMP_temperature;BMP_pressure;BME280_temperature;BME280_humidity;BME280_pressure;Samples;Min_cycle;Max_cycle;Signal;HPM_P1;HPM_P2
2023/09/29 00:00:17;;;;;;;4.50;2.08;;;20.20;69.60;;;;;;5073146;28;20128;-30
2023/09/29 00:02:44;;;;;;;3.78;2.10;;;20.10;69.50;;;;;;5063291;28;20118;-29
2023/09/29 00:05:11;;;;;;;3.17;2.00;;;21.00;83.40;;;;;;5053010;28;20099;-29
2023/09/29 00:07:38;;;;;;;3.17;2.00;;;;;;;;;;5053360;28;20124;-31
2023/09/29 00:10:08;;;;;;;2.90;2.08;;;20.20;69.60;;;;;;5053015;28;20131;-27
2023/09/29 00:12:35;;;;;;;3.85;2.20;;;20.20;85.50;;;;;;5052939;28;20056;-29
2023/09/29 00:15:04;;;;;;;3.40;2.17;;;20.10;69.50;;;;;;5052957;28;20045;-29
2023/09/29 00:17:31;;;;;;;3.10;2.03;;;;;;;;;;5053071;28;20139;-28
2023/09/29 00:19:58;;;;;;;3.95;2.00;;;20.00;73.20;;;;;;5053073;28;20136;-29
2023/09/29 00:22:25;;;;;;;3.10;1.80;;;;;;;;;;5052835;28;20056;-28
2023/09/29 00:24:51;;;;;;;3.22;2.10;;;21.20;87.70;;;;;;5052752;28;20480;-27
2023/09/29 00:27:19;;;;;;;5.10;2.25;;;20.90;87.90;;;;;;5052491;28;20080;-28
2023/09/29 00:29:45;;;;;;;4.30;1.92;;;19.90;87.80;;;;;;5071571;28;20474;-30
2023/09/29 00:32:13;;;;;;;2.67;2.03;;;20.40;88.10;;;;;;5072377;28;20045;-29
2023/09/29 00:34:41;;;;;;;3.17;1.85;;;;;;;;;;5072563;28;20438;-30
2023/09/29 00:37:09;;;;;;;4.78;2.10;;;19.90;74.10;;;;;;5072071;28;20116;-29
2023/09/29 00:39:36;;;;;;;4.60;2.00;;;20.10;87.30;;;;;;5072321;28;20127;-28
2023/09/29 00:42:06;;;;;;;4.07;2.08;;;20.20;87.20;;;;;;5072498;28;20049;-28
2023/09/29 00:44:33;;;;;;;3.42;2.08;;;20.60;87.80;;;;;;5072003;28;20079;-28
2023/09/29 00:47:00;;;;;;;3.50;2.00;;;19.60;70.60;;;;;;5072406;28;20057;-28
2023/09/29 00:49:29;;;;;;;5.00;2.00;;;21.00;87.60;;;;;;5072355;28;20131;-28
2023/09/29 00:51:58;;;;;;;2.75;1.75;;;20.00;88.00;;;;;;5072102;28;20518;-28
2023/09/29 00:54:25;;;;;;;2.35;1.85;;;19.90;87.50;;;;;;5071862;28;20049;-28
2023/09/29 00:56:52;;;;;;;3.78;2.10;;;20.50;88.20;;;;;;5072140;28;20051;-28
2023/09/29 00:59:19;;;;;;;3.63;2.00;;;19.30;86.90;;;;;;5072481;28;20151;-28
2023/09/29 01:01:47;;;;;;;2.95;1.80;;;;;;;;;;5068993;28;20140;-30
2023/09/29 01:04:15;;;;;;;2.85;1.90;;;;;;;;;;5051869;28;20053;-30
2023/09/29 01:06:43;;;;;;;4.00;2.00;;;20.10;87.60;;;;;;5052186;28;20308;-28
2023/09/29 01:09:10;;;;;;;3.05;2.15;;;20.10;87.60;;;;;;5051823;28;20135;-28
2023/09/29 01:11:42;;;;;;;2.42;2.00;;;20.10;69.60;;;;;;5051588;28;20045;-28
2023/09/29 01:14:11;;;;;;;3.75;1.90;;;;;;;;;;5051982;28;20064;-28
2023/09/29 01:16:38;;;;;;;4.22;2.10;;;;;;;;;;5052132;28;20079;-31
2023/09/29 01:19:08;;;;;;;2.85;1.90;;;19.10;87.00;;;;;;5052254;28;20131;-27
2023/09/29 01:21:34;;;;;;;2.97;1.90;;;20.10;72.10;;;;;;5051676;28;20128;-28
2023/09/29 01:24:02;;;;;;;3.00;1.80;;;19.60;86.90;;;;;;5051672;28;20600;-28
2023/09/29 01:26:29;;;;;;;2.70;1.95;;;20.10;87.20;;;;;;5051859;28;20056;-28
2023/09/29 01:28:56;;;;;;;3.40;2.13;;;19.80;87.90;;;;;;5064176;28;20127;-28
2023/09/29 01:31:23;;;;;;;3.65;2.42;;;20.50;85.50;;;;;;5071771;28;20049;-29
2023/09/29 01:33:50;;;;;;;4.20;2.17;;;19.90;87.50;;;;;;5071366;28;20493;-29
2023/09/29 01:36:16;;;;;;;2.58;1.80;;;19.80;87.40;;;;;;5070864;28;20144;-28
2023/09/29 01:38:45;;;;;;;2.97;2.08;;;;;;;;;;5071461;28;20053;-28
2023/09/29 01:41:14;;;;;;;3.05;2.10;;;20.90;87.70;;;;;;5069988;28;20045;-27
2023/09/29 01:43:41;;;;;;;3.75;2.35;;;;;;;;;;5071403;28;20076;-31
2023/09/29 01:46:09;;;;;;;3.10;1.90;;;20.60;74.90;;;;;;5071697;28;20136;-28
2023/09/29 01:48:36;;;;;;;2.75;1.98;;;19.80;81.40;;;;;;5071460;28;20517;-28
2023/09/29 01:51:03;;;;;;;2.90;1.90;;;19.50;79.70;;;;;;5060515;28;20100;-28
2023/09/29 01:53:30;;;;;;;3.00;1.80;;;;;;;;;;5051679;28;20051;-29
2023/09/29 01:55:57;;;;;;;2.63;2.00;;;;;;;;;;5051468;28;20453;-29
2023/09/29 01:58:26;;;;;;;2.72;1.80;;;19.80;86.90;;;;;;5051198;28;20049;-28
2023/09/29 02:00:54;;;;;;;4.05;1.70;;;;;;;;;;5051451;28;20048;-28
2023/09/29 02:03:21;;;;;;;2.25;1.77;;;20.00;87.70;;;;;;5051458;28;20483;-28
2023/09/29 02:05:48;;;;;;;4.43;1.92;;;;;;;;;;5051332;28;20053;-29
2023/09/29 02:08:14;;;;;;;4.07;2.08;;;19.70;78.80;;;;;;5069477;28;20438;-29
2023/09/29 02:10:41;;;;;;;2.90;1.85;;;20.00;87.50;;;;;;5069829;28;20127;-29
2023/09/29 02:13:09;;;;;;;2.45;1.90;;;;;;;;;;5062296;28;20486;-31
2023/09/29 02:15:37;;;;;;;3.13;2.03;;;20.00;69.50;;;;;;5064838;28;20049;-29
2023/09/29 02:18:05;;;;;;;3.35;1.92;;;19.90;87.00;;;;;;5050882;28;20137;-28
2023/09/29 02:20:33;;;;;;;2.70;1.80;;;;;;;;;;5051291;28;20080;-31
2023/09/29 02:23:02;;;;;;;3.20;1.88;;;20.40;72.10;;;;;;5050719;28;20095;-29
2023/09/29 02:25:29;;;;;;;3.47;1.70;;;19.40;78.00;;;;;;5050963;28;20490;-30
2023/09/29 02:27:57;;;;;;;3.08;2.00;;;;;;;;;;5054973;28;20056;-29
2023/09/29 02:30:24;;;;;;;3.20;2.08;;;19.30;87.20;;;;;;5057374;28;20041;-28
2023/09/29 02:32:53;;;;;;;3.95;2.08;;;19.80;69.40;;;;;;5060342;28;20040;-30
2023/09/29 02:35:20;;;;;;;3.88;2.08;;;19.20;87.20;;;;;;5060584;28;20454;-28
2023/09/29 02:37:47;;;;;;;2.83;1.92;;;;;;;;;;5059534;28;20413;-29
2023/09/29 02:40:14;;;;;;;3.05;2.00;;;19.50;87.80;;;;;;5058832;28;20044;-28
2023/09/29 02:42:42;;;;;;;2.90;1.85;;;20.40;88.20;;;;;;5056756;28;20395;-28
2023/09/29 02:45:09;;;;;;;2.83;2.17;;;;;;;;;;5061559;28;20542;-30
2023/09/29 02:47:38;;;;;;;2.45;1.80;;;19.90;85.80;;;;;;5057509;28;20136;-28
2023/09/29 02:50:07;;;;;;;4.03;2.10;;;20.00;69.60;;;;;;5067165;28;20094;-30
2023/09/29 02:52:34;;;;;;;3.35;1.92;;;20.50;87.80;;;;;;5064821;28;20099;-28
2023/09/29 02:55:04;;;;;;;3.83;2.05;;;;;;;;;;5067048;28;20139;-29
2023/09/29 02:57:31;;;;;;;2.40;1.70;;;;;;;;;;5054345;28;20053;-29
2023/09/29 02:59:58;;;;;;;3.50;2.05;;;20.00;87.50;;;;;;5054980;28;20141;-28
2023/09/29 03:02:24;;;;;;;3.60;1.95;;;19.90;87.20;;;;;;5054592;28;20041;-28
2023/09/29 03:04:52;;;;;;;3.20;2.08;;;;;;;;;;5054279;28;20128;-29
2023/09/29 03:07:20;;;;;;;2.92;2.13;;;19.70;81.80;;;;;;5054325;28;20128;-28
2023/09/29 03:09:46;;;;;;;5.40;2.10;;;20.00;87.20;;;;;;5054224;28;20577;-28
2023/09/29 03:12:13;;;;;;;2.45;1.90;;;20.20;87.30;;;;;;5053685;28;20144;-27
2023/09/29 03:14:40;;;;;;;3.40;2.08;;;20.10;75.40;;;;;;5054248;28;20165;-30
2023/09/29 03:17:06;;;;;;;3.00;2.10;;;19.70;87.00;;;;;;5054388;28;20132;-29
2023/09/29 03:19:34;;;;;;;3.75;2.10;;;20.90;88.00;;;;;;5053939;28;20138;-28
2023/09/29 03:22:01;;;;;;;3.30;2.30;;;19.70;87.90;;;;;;5054057;28;20053;-29
2023/09/29 03:24:29;;;;;;;3.28;1.90;;;18.90;86.90;;;;;;5053671;28;20510;-28
2023/09/29 03:26:56;;;;;;;3.00;1.80;;;20.20;87.20;;;;;;5053827;28;20132;-28
2023/09/29 03:29:23;;;;;;;3.47;1.80;;;20.00;87.10;;;;;;5053963;28;20053;-28
2023/09/29 03:31:53;;;;;;;2.92;1.98;;;;;;;;;;5057231;28;20064;-30
2023/09/29 03:34:20;;;;;;;3.92;1.98;;;20.10;87.60;;;;;;5073920;28;20390;-29
2023/09/29 03:36:46;;;;;;;3.28;2.05;;;20.00;72.20;;;;;;5073055;28;20119;-28
2023/09/29 03:39:17;;;;;;;3.40;2.08;;;20.00;78.90;;;;;;5073617;28;20523;-29
2023/09/29 03:41:45;;;;;;;3.00;2.10;;;21.00;87.80;;;;;;5073987;28;20127;-28
2023/09/29 03:44:12;;;;;;;2.47;1.95;;;20.40;77.70;;;;;;5073065;28;20074;-28
2023/09/29 03:46:39;;;;;;;3.38;2.10;;;19.60;86.00;;;;;;5073524;28;20060;-30
2023/09/29 03:49:06;;;;;;;3.20;2.38;;;20.10;88.10;;;;;;5073215;28;20052;-28
2023/09/29 03:51:33;;;;;;;3.95;2.28;;;;;;;;;;5073348;28;20131;-27
2023/09/29 03:54:00;;;;;;;2.30;1.83;;;19.90;87.60;;;;;;5073519;28;20056;-28
2023/09/29 03:56:27;;;;;;;2.85;1.80;;;;;;;;;;5073093;28;20537;-31
2023/09/29 03:58:55;;;;;;;3.13;1.80;;;19.60;78.60;;;;;;5073069;28;20487;-28
2023/09/29 04:01:22;;;;;;;2.92;1.92;;;;;;;;;;5072835;28;20076;-28
2023/09/29 04:03:49;;;;;;;2.88;2.03;;;;;;;;;;5072915;28;20494;-29
2023/09/29 04:06:16;;;;;;;3.85;2.25;;;19.60;87.30;;;;;;5073246;28;20127;-29
2023/09/29 04:08:42;;;;;;;2.60;2.08;;;19.40;87.80;;;;;;5072871;28;20156;-28
2023/09/29 04:11:10;;;;;;;2.65;1.80;;;;;;;;;;5073093;28;20159;-30
2023/09/29 04:13:37;;;;;;;3.17;2.20;;;20.60;88.30;;;;;;5072751;28;20059;-28
2023/09/29 04:16:06;;;;;;;2.90;2.00;;;20.20;84.40;;;;;;5072999;28;20124;-28
2023/09/29 04:18:32;;;;;;;2.70;2.20;;;19.60;87.00;;;;;;5072762;28;20052;-28
2023/09/29 04:21:01;;;;;;;3.03;2.00;;;20.00;87.20;;;;;;5072786;28;20468;-28
2023/09/29 04:23:28;;;;;;;3.70;2.03;;;;;;;;;;5072744;28;20052;-30
2023/09/29 04:25:55;;;;;;;2.80;2.28;;;20.00;88.10;;;;;;5072968;28;20056;-28
2023/09/29 04:28:21;;;;;;;2.70;2.10;;;19.60;87.00;;;;;;5072648;28;20132;-29
2023/09/29 04:30:48;;;;;;;2.78;2.25;;;19.90;82.20;;;;;;5072720;28;20044;-29
2023/09/29 04:33:16;;;;;;;2.63;2.08;;;19.50;86.90;;;;;;5062156;28;20129;-29
2023/09/29 04:35:43;;;;;;;3.22;2.13;;;20.10;88.10;;;;;;5065314;28;20503;-28
2023/09/29 04:38:10;;;;;;;4.03;2.15;;;19.90;87.60;;;;;;5072348;28;20076;-28
2023/09/29 04:40:37;;;;;;;3.15;2.10;;;20.80;77.70;;;;;;5072594;28;20055;-29
2023/09/29 04:43:05;;;;;;;3.42;2.17;;;;;;;;;;5072650;28;20178;-33
2023/09/29 04:45:33;;;;;;;3.20;2.05;;;20.40;87.70;;;;;;5072293;28;20048;-28
2023/09/29 04:48:00;;;;;;;3.60;2.20;;;;;;;;;;5072235;28;20113;-31
2023/09/29 04:50:29;;;;;;;3.60;2.30;;;19.60;87.00;;;;;;5071978;28;20131;-28
2023/09/29 04:52:55;;;;;;;3.20;2.03;;;19.70;87.50;;;;;;5072285;28;20529;-27
2023/09/29 04:55:22;;;;;;;2.70;2.15;;;19.30;86.90;;;;;;5071967;28;20128;-29
2023/09/29 04:57:52;;;;;;;3.50;2.30;;;18.70;83.30;;;;;;5072148;28;20153;-28
2023/09/29 05:00:19;;;;;;;3.30;2.13;;;;;;;;;;5060193;28;20048;-29
2023/09/29 05:02:46;;;;;;;2.92;2.30;;;20.30;87.80;;;;;;5067425;28;20139;-28
2023/09/29 05:05:13;;;;;;;3.65;2.00;;;;;;;;;;5052731;28;20048;-30
2023/09/29 05:07:43;;;;;;;3.40;2.15;;;20.20;87.30;;;;;;5056272;28;20243;-28
2023/09/29 05:10:11;;;;;;;3.67;2.10;;;21.00;87.80;;;;;;5068563;28;20463;-29
2023/09/29 05:12:38;;;;;;;3.25;2.20;;;;;;;;;;5070902;28;20045;-28
2023/09/29 05:15:05;;;;;;;3.10;2.05;;;19.90;69.50;;;;;;5064724;28;20045;-28
2023/09/29 05:17:32;;;;;;;3.13;2.20;;;19.60;87.00;;;;;;5049912;28;20160;-28
2023/09/29 05:19:59;;;;;;;2.70;2.08;;;;;;;;;;5051790;28;20414;-31
2023/09/29 05:22:26;;;;;;;2.50;2.15;;;20.00;87.70;;;;;;5056117;28;20136;-28
2023/09/29 05:24:54;;;;;;;2.70;2.20;;;20.50;79.40;;;;;;5071461;28;20131;-28
2023/09/29 05:27:21;;;;;;;3.53;2.10;;;20.50;88.40;;;;;;5071839;28;20083;-28
2023/09/29 05:29:48;;;;;;;2.65;2.00;;;20.30;73.00;;;;;;5071570;28;20127;-30
2023/09/29 05:32:14;;;;;;;3.78;2.28;;;19.90;88.00;;;;;;5071982;28;20262;-28
2023/09/29 05:34:41;;;;;;;3.00;2.38;;;20.10;87.60;;;;;;5071678;28;20087;-28
2023/09/29 05:37:09;;;;;;;3.55;2.40;;;;;;;;;;5071383;28;20144;-28
2023/09/29 05:39:35;;;;;;;4.07;2.38;;;20.10;87.30;;;;;;5067490;28;20045;-28
2023/09/29 05:42:04;;;;;;;3.30;2.20;;;19.90;69.50;;;;;;5071622;28;20127;-28
2023/09/29 05:44:30;;;;;;;3.80;2.33;;;19.60;87.40;;;;;;5071501;28;20391;-28
2023/09/29 05:46:57;;;;;;;3.08;2.08;;;20.10;87.40;;;;;;5071688;28;20127;-29
2023/09/29 05:49:25;;;;;;;3.40;2.22;;;;;;;;;;5071503;28;20561;-29
2023/09/29 05:51:52;;;;;;;3.58;2.42;;;;;;;;;;5070674;28;20515;-28
2023/09/29 05:54:18;;;;;;;4.40;2.45;;;20.80;75.70;;;;;;5071300;28;20045;-29
2023/09/29 05:56:45;;;;;;;3.72;2.28;;;20.90;77.60;;;;;;5071448;28;20140;-28
2023/09/29 05:59:14;;;;;;;2.83;2.25;;;19.90;69.50;;;;;;5071319;28;20051;-30
2023/09/29 06:01:41;;;;;;;3.67;2.50;;;;;;;;;;5071609;28;20127;-30
2023/09/29 06:04:07;;;;;;;3.03;2.42;;;19.80;87.90;;;;;;5071535;28;20072;-29
2023/09/29 06:06:34;;;;;;;3.28;2.25;;;20.20;85.90;;;;;;5071178;28;20486;-28
2023/09/29 06:09:01;;;;;;;2.85;2.17;;;20.50;70.40;;;;;;5068202;28;20398;-28
2023/09/29 06:11:27;;;;;;;3.42;2.40;;;19.70;88.00;;;;;;5060546;28;20574;-28
2023/09/29 06:13:57;;;;;;;3.95;2.50;;;19.70;75.30;;;;;;5058159;28;20125;-28
2023/09/29 06:16:25;;;;;;;3.72;2.47;;;20.50;88.10;;;;;;5061166;28;20463;-34
2023/09/29 06:18:52;;;;;;;3.17;2.30;;;19.50;87.10;;;;;;5059378;28;20135;-34
2023/09/29 06:21:19;;;;;;;3.30;2.40;;;;;;;;;;5062890;28;20045;-35
2023/09/29 06:23:46;;;;;;;3.42;2.20;;;20.20;87.50;;;;;;5062209;28;20127;-35
2023/09/29 06:26:13;;;;;;;3.00;2.25;;;20.50;88.50;;;;;;5065118;28;20135;-37
2023/09/29 06:28:40;;;;;;;3.53;2.40;;;18.90;82.40;;;;;;5067565;28;20049;-33
2023/09/29 06:31:07;;;;;;;2.40;1.90;;;18.70;87.00;;;;;;5063700;28;20120;-33
2023/09/29 06:33:35;;;;;;;4.95;2.63;;;19.80;69.70;;;;;;5064957;28;20067;-32
2023/09/29 06:36:02;;;;;;;2.65;2.22;;;;;;;;;;5064732;28;20133;-31
2023/09/29 06:38:29;;;;;;;3.35;2.53;;;;;;;;;;5065769;28;20119;-32
2023/09/29 06:40:57;;;;;;;2.95;2.20;;;19.50;75.50;;;;;;5064591;28;20049;-32
2023/09/29 06:43:24;;;;;;;3.58;2.10;;;;;;;;;;5057401;28;20045;-32
2023/09/29 06:45:50;;;;;;;3.30;2.50;;;20.20;87.40;;;;;;5054982;28;20132;-28
2023/09/29 06:48:17;;;;;;;2.90;2.20;;;19.80;87.20;;;;;;5054842;28;20481;-28
2023/09/29 06:50:45;;;;;;;4.80;2.03;;;20.40;75.50;;;;;;5054640;28;20049;-29
2023/09/29 06:53:12;;;;;;;2.83;2.22;;;20.10;73.20;;;;;;5060790;28;20123;-30
2023/09/29 06:55:39;;;;;;;2.80;2.25;;;20.20;87.70;;;;;;5074689;28;20123;-29
2023/09/29 06:58:06;;;;;;;2.83;2.30;;;19.90;87.10;;;;;;5074987;28;20052;-29
2023/09/29 07:00:32;;;;;;;3.00;2.25;;;19.70;73.20;;;;;;5074580;28;20084;-29
2023/09/29 07:02:59;;;;;;;3.95;2.35;;;20.40;87.20;;;;;;5074386;28;20056;-28
2023/09/29 07:05:26;;;;;;;2.63;2.05;;;20.30;87.00;;;;;;5074282;28;20480;-27
2023/09/29 07:07:54;;;;;;;2.50;1.95;;;21.30;80.10;;;;;;5074630;28;20044;-29
2023/09/29 07:10:21;;;;;;;3.08;2.17;;;20.30;86.70;;;;;;5059137;28;20049;-29
2023/09/29 07:12:49;;;;;;;2.60;2.10;;;20.40;86.70;;;;;;5054509;28;20140;-27
2023/09/29 07:15:16;;;;;;;3.22;2.13;;;;;;;;;;5059234;28;20080;-28
2023/09/29 07:17:43;;;;;;;2.10;1.70;;;;;;;;;;5056799;28;20123;-31
2023/09/29 07:20:12;;;;;;;7.35;2.10;;;20.90;69.20;;;;;;5067475;28;20132;-28
2023/09/29 07:22:39;;;;;;;3.00;1.95;;;;;;;;;;5074311;28;20443;-29
2023/09/29 07:25:08;;;;;;;2.28;1.80;;;20.10;86.20;;;;;;5054082;28;20140;-28
2023/09/29 07:27:35;;;;;;;3.00;2.05;;;;;;;;;;5055508;28;20144;-29
2023/09/29 07:30:02;;;;;;;2.30;2.00;;;20.40;86.10;;;;;;5064680;28;20064;-28
2023/09/29 07:32:29;;;;;;;2.30;1.80;;;;;;;;;;5061469;28;20132;-28
2023/09/29 07:34:56;;;;;;;3.20;1.88;;;;;;;;;;5063421;28;20131;-29
2023/09/29 07:37:23;;;;;;;2.70;2.00;;;;;;;;;;5060295;28;20136;-30
2023/09/29 07:39:50;;;;;;;4.32;1.80;;;20.20;85.70;;;;;;5053500;28;20128;-28
2023/09/29 07:42:18;;;;;;;2.90;2.20;;;20.90;86.00;;;;;;5053106;28;20124;-28
2023/09/29 07:44:45;;;;;;;2.80;2.15;;;20.30;85.70;;;;;;5053958;28;20124;-29
2023/09/29 07:47:12;;;;;;;3.67;1.90;;;;;;;;;;5060437;28;20124;-29
2023/09/29 07:49:40;;;;;;;2.63;1.80;;;21.10;86.30;;;;;;5063672;28;20128;-29
2023/09/29 07:52:07;;;;;;;2.67;1.95;;;20.50;85.60;;;;;;5062113;28;20053;-28
2023/09/29 07:54:35;;;;;;;3.22;1.92;;;;;;;;;;5070457;28;20052;-28
2023/09/29 07:57:02;;;;;;;3.78;2.58;;;20.80;85.70;;;;;;5073203;28;20049;-28
2023/09/29 07:59:30;;;;;;;3.13;1.98;;;21.00;79.80;;;;;;5073431;28;20051;-29
2023/09/29 08:01:58;;;;;;;2.38;1.67;;;;;;;;;;5069714;28;20132;-30
2023/09/29 08:04:25;;;;;;;2.97;1.90;;;;;;;;;;5053590;28;20079;-29
2023/09/29 08:06:52;;;;;;;2.63;1.98;;;20.80;85.90;;;;;;5053720;28;20235;-28
2023/09/29 08:09:18;;;;;;;2.95;1.80;;;20.80;75.30;;;;;;5053282;28;20132;-28
2023/09/29 08:11:45;;;;;;;2.47;1.80;;;20.70;85.60;;;;;;5058904;28;20128;-28
2023/09/29 08:14:12;;;;;;;2.47;1.80;;;20.70;81.00;;;;;;5059180;28;20071;-29
2023/09/29 08:16:41;;;;;;;2.30;1.77;;;20.60;85.30;;;;;;5062328;28;20410;-29
2023/09/29 08:19:07;;;;;;;2.88;2.00;;;20.70;86.30;;;;;;5061408;28;20127;-29
2023/09/29 08:21:34;;;;;;;3.90;2.13;;;20.50;86.20;;;;;;5061716;28;20132;-28
2023/09/29 08:24:03;;;;;;;3.28;1.95;;;21.10;82.50;;;;;;5061617;28;20041;-29
2023/09/29 08:26:31;;;;;;;2.05;1.75;;;20.60;81.90;;;;;;5064404;28;20053;-28
2023/09/29 08:28:58;;;;;;;3.63;1.90;;;21.00;86.50;;;;;;5066584;28;20052;-28
2023/09/29 08:31:25;;;;;;;2.33;1.85;;;;;;;;;;5065734;28;20502;-30
2023/09/29 08:33:53;;;;;;;2.55;1.70;;;20.50;85.40;;;;;;5059514;28;20470;-30
2023/09/29 08:36:21;;;;;;;2.35;1.80;;;19.70;85.10;;;;;;5059751;28;20131;-28
2023/09/29 08:38:48;;;;;;;2.47;1.80;;;;;;;;;;5062689;28;20052;-28
2023/09/29 08:41:15;;;;;;;2.50;1.98;;;;;;;;;;5055125;28;20128;-28
2023/09/29 08:43:42;;;;;;;3.80;2.00;;;;;;;;;;5063045;28;20497;-29
2023/09/29 08:46:09;;;;;;;3.10;1.80;;;20.80;86.20;;;;;;5059548;28;20127;-29
2023/09/29 08:48:36;;;;;;;2.53;1.77;;;;;;;;;;5058420;28;20044;-30
2023/09/29 08:51:04;;;;;;;2.55;1.83;;;20.50;85.70;;;;;;5060665;28;20124;-28
2023/09/29 08:53:31;;;;;;;2.95;1.92;;;20.20;86.40;;;;;;5060374;28;20080;-28
2023/09/29 08:56:01;;;;;;;3.53;2.00;;;;;;;;;;5062734;28;20056;-29
2023/09/29 08:58:30;;;;;;;3.38;2.00;;;;;;;;;;5062053;28;20060;-29
2023/09/29 09:00:56;;;;;;;2.47;1.75;;;20.10;86.40;;;;;;5060638;28;20095;-28
2023/09/29 09:03:23;;;;;;;3.80;1.92;;;21.20;86.70;;;;;;5052319;28;20129;-29
2023/09/29 09:05:50;;;;;;;2.45;1.70;;;;;;;;;;5054625;28;20131;-29
2023/09/29 09:08:18;;;;;;;3.28;1.95;;;20.90;87.10;;;;;;5071924;28;20135;-28
2023/09/29 09:10:45;;;;;;;4.28;2.10;;;20.40;86.90;;;;;;5071986;28;20131;-28
2023/09/29 09:13:12;;;;;;;4.65;2.10;;;;;;;;;;5071410;28;20135;-29
2023/09/29 09:15:39;;;;;;;3.33;1.75;;;21.10;81.80;;;;;;5070713;28;20119;-34
2023/09/29 09:18:06;;;;;;;4.25;2.08;;;21.00;70.40;;;;;;5071780;28;20140;-33
2023/09/29 09:20:33;;;;;;;2.45;1.88;;;20.70;86.20;;;;;;5072112;28;20052;-33
2023/09/29 09:23:01;;;;;;;2.53;1.95;;;;;;;;;;5071918;28;20123;-33
2023/09/29 09:25:36;;;;;;;3.20;1.98;;;20.20;85.90;;;;;;5071672;28;20131;-33
2023/09/29 09:28:03;;;;;;;3.30;1.90;;;;;;;;;;5071501;28;20089;-33
2023/09/29 09:30:35;;;;;;;3.17;1.85;;;20.80;87.00;;;;;;5054105;28;20045;-29
2023/09/29 09:33:03;;;;;;;4.13;2.10;;;20.20;86.00;;;;;;5051999;28;20085;-29
2023/09/29 09:35:30;;;;;;;2.88;1.80;;;21.00;87.20;;;;;;5051330;28;20061;-28
2023/09/29 09:37:57;;;;;;;3.17;1.90;;;20.60;68.90;;;;;;5068727;28;20238;-28
2023/09/29 09:40:25;;;;;;;2.35;1.85;;;21.40;79.30;;;;;;5071635;28;20083;-28
2023/09/29 09:42:53;;;;;;;2.83;1.83;;;20.50;86.40;;;;;;5061685;28;20045;-29
2023/09/29 09:45:21;;;;;;;3.10;2.00;;;21.00;86.40;;;;;;5059193;28;20054;-28
2023/09/29 09:47:49;;;;;;;3.00;2.03;;;21.10;86.70;;;;;;5066226;28;20060;-28
2023/09/29 09:50:16;;;;;;;3.78;2.08;;;20.60;86.90;;;;;;5071733;28;20117;-30
2023/09/29 09:52:44;;;;;;;2.58;1.88;;;20.30;86.80;;;;;;5072056;28;20136;-27
2023/09/29 09:55:11;;;;;;;3.15;1.70;;;20.00;86.60;;;;;;5071159;28;20044;-29
2023/09/29 09:57:45;;;;;;;2.20;1.80;;;20.30;80.90;;;;;;5071765;28;20048;-29
2023/09/29 10:00:14;;;;;;;2.60;1.80;;;20.70;69.90;;;;;;5075858;28;20114;-29
2023/09/29 10:02:43;;;;;;;2.10;1.80;;;20.30;86.70;;;;;;5069485;28;20124;-29
2023/09/29 10:05:16;;;;;;;2.70;2.00;;;20.10;78.00;;;;;;5058202;28;20056;-29
2023/09/29 10:07:46;;;;;;;6.32;1.95;;;20.40;86.50;;;;;;5055554;28;20055;-28
2023/09/29 10:10:24;;;;;;;2.58;1.90;;;21.10;86.80;;;;;;5063602;28;20044;-28
2023/09/29 10:12:54;;;;;;;4.63;2.10;;;20.80;86.10;;;;;;5057003;28;20132;-30
2023/09/29 10:15:22;;;;;;;4.18;2.10;;;20.90;86.30;;;;;;5075172;28;20045;-27
2023/09/29 10:17:49;;;;;;;2.33;1.83;;;20.60;86.20;;;;;;5075256;28;20045;-28
2023/09/29 10:20:20;;;;;;;2.40;1.83;;;20.60;69.00;;;;;;5075375;28;20044;-30
2023/09/29 10:22:54;;;;;;;2.58;1.70;;;20.30;86.40;;;;;;5073367;28;20124;-29
2023/09/29 10:25:21;;;;;;;3.80;1.92;;;;;;;;;;5061530;28;20470;-30
2023/09/29 10:27:49;;;;;;;4.93;1.90;;;20.50;86.90;;;;;;5062989;28;20086;-28
2023/09/29 10:30:17;;;;;;;2.53;1.88;;;20.40;86.10;;;;;;5064100;28;20481;-28
2023/09/29 10:32:47;;;;;;;2.97;1.95;;;20.60;69.10;;;;;;5071336;28;20048;-29
2023/09/29 10:35:19;;;;;;;4.35;1.92;;;20.70;69.20;;;;;;5071478;28;20045;-28
2023/09/29 10:37:49;;;;;;;3.08;1.98;;;20.30;84.10;;;;;;5060786;28;20052;-29
2023/09/29 10:40:25;;;;;;;2.60;1.90;;;20.30;86.60;;;;;;5060221;28;20135;-28
2023/09/29 10:42:56;;;;;;;3.28;1.85;;;20.60;86.30;;;;;;5064143;28;20040;-29
2023/09/29 10:45:28;;;;;;;5.65;2.00;;;20.70;87.30;;;;;;5065326;28;20044;-29
2023/09/29 10:48:01;;;;;;;3.17;1.83;;;20.60;69.40;;;;;;5065146;28;20053;-29
2023/09/29 10:50:28;;;;;;;3.65;1.75;;;21.70;80.70;;;;;;5074869;28;20088;-34
2023/09/29 10:52:55;;;;;;;4.15;1.80;;;21.30;87.90;;;;;;5074590;28;20055;-37
2023/09/29 10:55:22;;;;;;;3.60;1.88;;;20.30;79.10;;;;;;5074276;28;20055;-30
2023/09/29 10:57:49;;;;;;;2.95;2.00;;;21.20;84.10;;;;;;5074614;28;20059;-33
2023/09/29 11:00:16;;;;;;;2.35;1.70;;;20.50;74.30;;;;;;5065932;28;20094;-33
2023/09/29 11:02:45;;;;;;;2.85;2.00;;;21.20;87.00;;;;;;5074373;28;20730;-34
2023/09/29 11:05:13;;;;;;;3.60;1.92;;;20.40;78.20;;;;;;5074149;28;20053;-34
2023/09/29 11:07:47;;;;;;;3.22;1.75;;;21.00;76.70;;;;;;5074289;28;20052;-35
2023/09/29 11:10:15;;;;;;;4.80;2.00;;;20.20;71.70;;;;;;5073286;28;20052;-33
2023/09/29 11:12:46;;;;;;;2.30;1.80;;;;;;;;;;5074389;28;20139;-30
2023/09/29 11:15:13;;;;;;;2.47;1.58;;;20.00;86.30;;;;;;5065561;28;20451;-34
2023/09/29 11:17:46;;;;;;;3.83;2.00;;;19.90;70.40;;;;;;5053925;28;20127;-29
2023/09/29 11:20:25;;;;;;;2.92;1.88;;;20.60;69.50;;;;;;5054414;28;20130;-29
2023/09/29 11:23:01;;;;;;;2.70;1.90;;;20.20;87.30;;;;;;5064295;28;20120;-28
2023/09/29 11:25:28;;;;;;;2.75;1.80;;;20.40;87.50;;;;;;5064516;28;20044;-33
2023/09/29 11:27:55;;;;;;;4.70;1.95;;;;;;;;;;5064769;28;20163;-33
2023/09/29 11:30:24;;;;;;;2.30;1.70;;;;;;;;;;5063819;28;20052;-33
2023/09/29 11:32:52;;;;;;;2.67;1.75;;;20.40;86.60;;;;;;5055844;28;20115;-34
2023/09/29 11:35:21;;;;;;;3.33;1.90;;;20.60;69.60;;;;;;5056598;28;20562;-33
2023/09/29 11:37:48;;;;;;;2.55;1.70;;;20.40;87.10;;;;;;5063562;28;20055;-35
2023/09/29 11:40:16;;;;;;;4.63;1.98;;;;;;;;;;5070705;28;20476;-34
2023/09/29 11:42:45;;;;;;;3.35;2.00;;;21.60;84.70;;;;;;5073727;28;20048;-32
2023/09/29 11:45:11;;;;;;;2.15;1.77;;;20.50;87.40;;;;;;5071629;28;20045;-37
2023/09/29 11:47:39;;;;;;;2.92;1.77;;;;;;;;;;5070332;28;20123;-32
2023/09/29 11:50:08;;;;;;;5.00;2.25;;;20.80;82.80;;;;;;5066499;28;20036;-37
2023/09/29 11:52:39;;;;;;;5.55;1.90;;;20.80;70.00;;;;;;5067416;28;20429;-31
2023/09/29 11:55:08;;;;;;;4.03;2.20;;;20.30;85.70;;;;;;5066236;28;20067;-34
2023/09/29 11:57:37;;;;;;;3.22;2.00;;;;;;;;;;5064491;28;20106;-36
2023/09/29 12:00:08;;;;;;;3.15;2.00;;;20.60;69.70;;;;;;5068747;28;20090;-29
2023/09/29 12:02:34;;;;;;;3.80;2.40;;;19.50;86.30;;;;;;5067687;28;20049;-28
2023/09/29 12:05:02;;;;;;;5.72;2.30;;;;;;;;;;5067357;28;20559;-29
2023/09/29 12:07:29;;;;;;;3.70;2.03;;;20.50;87.20;;;;;;5070176;28;20041;-29
2023/09/29 12:09:57;;;;;;;5.05;2.15;;;20.60;69.80;;;;;;5062294;28;20131;-29
2023/09/29 12:12:24;;;;;;;4.15;2.20;;;;;;;;;;5063516;28;20140;-30
2023/09/29 12:14:52;;;;;;;3.55;2.03;;;21.30;87.40;;;;;;5059147;28;20513;-28
2023/09/29 12:17:19;;;;;;;4.15;1.90;;;20.70;86.90;;;;;;5058724;28;20136;-34
2023/09/29 12:19:46;;;;;;;2.60;1.90;;;20.50;87.40;;;;;;5070058;28;20131;-36
2023/09/29 12:22:13;;;;;;;2.88;1.85;;;20.30;87.20;;;;;;5071966;28;20076;-35
2023/09/29 12:24:41;;;;;;;5.20;2.30;;;;;;;;;;5065985;28;20063;-29
2023/09/29 12:27:09;;;;;;;5.70;2.10;;;21.10;88.10;;;;;;5072622;28;20127;-28
2023/09/29 12:29:36;;;;;;;3.55;1.83;;;;;;;;;;5072526;28;20132;-30
2023/09/29 12:32:03;;;;;;;4.05;1.80;;;20.80;83.60;;;;;;5072856;28;20127;-29
2023/09/29 12:34:32;;;;;;;3.03;2.00;;;20.50;87.90;;;;;;5072054;28;20048;-29
2023/09/29 12:36:59;;;;;;;3.35;2.08;;;;;;;;;;5070652;28;20045;-29
2023/09/29 12:39:26;;;;;;;5.60;2.00;;;;;;;;;;5052368;28;20049;-28
2023/09/29 12:41:53;;;;;;;4.05;2.00;;;21.20;88.10;;;;;;5061885;28;20049;-29
2023/09/29 12:44:21;;;;;;;5.40;1.95;;;20.80;70.00;;;;;;5061299;28;20127;-28
2023/09/29 12:46:48;;;;;;;3.42;1.80;;;21.20;88.30;;;;;;5061513;28;20044;-30
2023/09/29 12:49:15;;;;;;;3.25;2.00;;;;;;;;;;5062141;28;20124;-29
2023/09/29 12:51:42;;;;;;;4.57;2.17;;;20.30;81.30;;;;;;5061097;28;20128;-28
2023/09/29 12:54:09;;;;;;;3.67;2.05;;;20.70;87.90;;;;;;5063413;28;20123;-29
2023/09/29 12:56:35;;;;;;;3.42;1.98;;;20.80;87.20;;;;;;5069348;28;20040;-36
2023/09/29 12:59:02;;;;;;;3.88;1.95;;;20.90;87.30;;;;;;5068059;28;20503;-33
2023/09/29 13:01:31;;;;;;;3.65;2.10;;;20.70;70.10;;;;;;5062374;28;20132;-33
2023/09/29 13:03:58;;;;;;;3.72;2.10;;;20.70;87.30;;;;;;5063039;28;20041;-34
2023/09/29 13:06:24;;;;;;;4.70;2.13;;;20.80;87.10;;;;;;5052313;28;20461;-33
2023/09/29 13:08:51;;;;;;;4.82;2.40;;;21.40;87.60;;;;;;5052390;28;20152;-34
2023/09/29 13:11:18;;;;;;;3.00;1.90;;;20.80;87.10;;;;;;5052255;28;20468;-32
2023/09/29 13:13:45;;;;;;;4.18;2.00;;;21.10;87.70;;;;;;5052090;28;20128;-33